createdAt,value
2019-02-28T00:02:01.745Z,11.00
2019-02-28T00:04:32.809Z,11.13
2019-02-28T00:06:59.774Z,10.50
2019-02-28T00:09:27.913Z,10.93
2019-02-28T00:11:56.068Z,9.63
2019-02-28T00:14:27.111Z,11.03
2019-02-28T00:16:54.252Z,10.30
2019-02-28T00:19:23.991Z,9.83
2019-02-28T00:21:52.645Z,9.87
2019-02-28T00:24:20.782Z,9.27
2019-02-28T00:26:48.966Z,9.77
2019-02-28T00:29:17.210Z,9.97
2019-02-28T00:31:49.533Z,9.23
2019-02-28T00:34:15.206Z,9.53
2019-02-28T00:36:43.723Z,9.43
2019-02-28T00:39:11.861Z,9.30
2019-02-28T00:41:42.983Z,10.10
2019-02-28T00:44:10.321Z,9.03
2019-02-28T00:46:44.004Z,10.00
2019-02-28T00:49:08.310Z,8.97
2019-02-28T00:51:36.486Z,9.47
2019-02-28T00:54:04.634Z,8.97
2019-02-28T00:56:32.774Z,9.17
2019-02-28T00:59:01.224Z,8.70
2019-02-28T01:01:29.443Z,8.63
2019-02-28T01:03:58.292Z,8.63
2019-02-28T01:06:27.406Z,9.17
2019-02-28T01:08:56.038Z,9.63
2019-02-28T01:11:24.974Z,8.90
2019-02-28T01:13:53.250Z,8.80
2019-02-28T01:16:21.402Z,9.57
2019-02-28T01:18:49.575Z,8.77
2019-02-28T01:21:18.063Z,8.43
2019-02-28T01:23:46.222Z,10.53
2019-02-28T01:26:14.399Z,10.13
2019-02-28T01:28:42.730Z,10.73
2019-02-28T01:31:11.612Z,9.40
2019-02-28T01:33:40.374Z,9.37
2019-02-28T01:36:08.532Z,9.60
2019-02-28T01:38:36.705Z,9.77
2019-02-28T01:41:04.846Z,9.60
2019-02-28T01:43:33.351Z,8.90
2019-02-28T01:46:01.483Z,9.80
2019-02-28T01:48:29.622Z,9.20
2019-02-28T01:51:00.811Z,9.57
2019-02-28T01:53:27.610Z,8.83
2019-02-28T01:55:55.722Z,10.43
2019-02-28T01:58:24.001Z,8.93
2019-02-28T02:00:53.590Z,8.53
2019-02-28T02:03:21.902Z,9.20
2019-02-28T02:05:51.708Z,9.07
2019-02-28T02:08:19.831Z,10.13
2019-02-28T02:10:47.973Z,9.77
2019-02-28T02:13:16.328Z,9.37
2019-02-28T02:15:44.458Z,10.10
2019-02-28T02:18:12.585Z,9.70
2019-02-28T02:20:40.869Z,10.00
2019-02-28T02:23:08.981Z,9.37
2019-02-28T02:25:38.188Z,9.63
2019-02-28T02:28:06.853Z,9.73
2019-02-28T02:30:34.971Z,9.80
2019-02-28T02:33:03.397Z,9.23
2019-02-28T02:35:31.829Z,10.00
2019-02-28T02:38:03.460Z,10.63
2019-02-28T02:40:29.770Z,10.20
2019-02-28T02:42:57.938Z,9.77
2019-02-28T02:45:26.058Z,10.30
2019-02-28T02:47:54.170Z,10.20
2019-02-28T02:50:22.353Z,10.20
2019-02-28T02:52:50.532Z,10.20
2019-02-28T02:55:18.682Z,10.07
2019-02-28T02:57:50.474Z,9.83
2019-02-28T03:00:17.320Z,10.57
2019-02-28T03:02:45.694Z,10.87
2019-02-28T03:05:14.082Z,10.83
2019-02-28T03:07:42.348Z,12.23
2019-02-28T03:10:12.057Z,10.47
2019-02-28T03:12:40.527Z,10.77
2019-02-28T03:15:10.031Z,10.70
2019-02-28T03:17:38.190Z,11.53
2019-02-28T03:20:08.863Z,10.20
2019-02-28T03:22:37.079Z,11.23
2019-02-28T03:25:06.380Z,11.30
2019-02-28T03:27:34.686Z,11.53
2019-02-28T03:30:02.863Z,10.53
2019-02-28T03:32:39.744Z,10.13
2019-02-28T03:35:01.273Z,10.73
2019-02-28T03:37:33.320Z,10.20
2019-02-28T03:40:04.239Z,10.60
2019-02-28T03:42:30.088Z,10.47
2019-02-28T03:44:58.427Z,10.77
2019-02-28T03:47:26.568Z,11.40
2019-02-28T03:49:54.734Z,10.60
2019-02-28T03:52:22.890Z,10.63
2019-02-28T03:54:51.050Z,10.37
2019-02-28T03:57:19.310Z,10.47
2019-02-28T03:59:55.355Z,10.43
2019-02-28T04:02:22.235Z,10.80
2019-02-28T04:04:49.971Z,10.77
2019-02-28T04:07:17.151Z,10.43
2019-02-28T04:09:45.444Z,10.20
2019-02-28T04:12:13.980Z,10.50
2019-02-28T04:14:42.131Z,10.63
2019-02-28T04:17:10.276Z,11.13
2019-02-28T04:19:38.696Z,11.63
2019-02-28T04:22:06.830Z,10.80
2019-02-28T04:24:35.045Z,10.57
2019-02-28T04:27:07.012Z,10.57
2019-02-28T04:29:33.243Z,9.83
2019-02-28T04:32:01.403Z,10.63
2019-02-28T04:34:29.636Z,11.70
2019-02-28T04:36:57.766Z,10.67
2019-02-28T04:39:25.946Z,11.30
2019-02-28T04:41:54.291Z,10.80
2019-02-28T04:44:22.442Z,11.27
2019-02-28T04:46:50.582Z,11.47
2019-02-28T04:49:21.835Z,10.63
2019-02-28T04:51:48.586Z,11.83
2019-02-28T04:54:16.746Z,10.70
2019-02-28T04:56:45.570Z,12.10
2019-02-28T04:59:14.692Z,11.17
2019-02-28T05:01:45.218Z,12.10
2019-02-28T05:04:12.717Z,11.43
2019-02-28T05:06:40.858Z,11.17
2019-02-28T05:09:10.778Z,10.30
2019-02-28T05:11:39.018Z,11.10
2019-02-28T05:14:07.173Z,10.07
2019-02-28T05:16:35.315Z,10.60
2019-02-28T05:19:03.653Z,9.93
2019-02-28T05:21:31.806Z,10.90
2019-02-28T05:23:59.957Z,11.17
2019-02-28T05:26:28.269Z,10.73
2019-02-28T05:28:56.410Z,10.57
2019-02-28T05:31:27.127Z,10.53
2019-02-28T05:33:54.430Z,11.10
2019-02-28T05:36:22.601Z,10.77
2019-02-28T05:38:53.543Z,10.77
2019-02-28T05:41:20.695Z,10.63
2019-02-28T05:43:48.849Z,10.43
2019-02-28T05:46:17.010Z,11.20
2019-02-28T05:48:45.182Z,10.73
2019-02-28T05:51:13.334Z,10.70
2019-02-28T05:53:42.693Z,10.20
2019-02-28T05:56:11.026Z,11.57
2019-02-28T05:58:39.174Z,10.77
2019-02-28T06:01:08.802Z,10.80
2019-02-28T06:03:37.317Z,10.70
2019-02-28T06:06:05.464Z,10.57
2019-02-28T06:08:35.510Z,10.93
2019-02-28T06:11:03.699Z,10.80
2019-02-28T06:13:31.851Z,10.87
2019-02-28T06:15:59.994Z,11.13
2019-02-28T06:18:32.679Z,11.03
2019-02-28T06:20:58.218Z,10.50
2019-02-28T06:23:26.345Z,10.87
2019-02-28T06:25:55.747Z,10.50
2019-02-28T06:28:27.635Z,12.10
2019-02-28T06:30:54.433Z,11.00
2019-02-28T06:33:23.007Z,11.03
2019-02-28T06:35:53.701Z,11.03
2019-02-28T06:38:21.026Z,11.10
2019-02-28T06:40:49.253Z,10.30
2019-02-28T06:43:18.731Z,10.50
2019-02-28T06:45:47.254Z,10.63
2019-02-28T06:48:15.704Z,10.83
2019-02-28T06:50:44.732Z,10.27
2019-02-28T06:53:13.674Z,10.23
2019-02-28T06:55:47.660Z,10.20
2019-02-28T06:58:15.922Z,9.57
2019-02-28T07:00:44.168Z,10.50
2019-02-28T07:03:13.993Z,11.00
2019-02-28T07:05:42.142Z,10.20
2019-02-28T07:08:10.317Z,10.93
2019-02-28T07:10:38.620Z,10.97
2019-02-28T07:13:06.761Z,10.57
2019-02-28T07:15:34.916Z,11.33
2019-02-28T07:18:03.237Z,11.47
2019-02-28T07:20:34.975Z,11.20
2019-02-28T07:23:01.255Z,11.73
2019-02-28T07:25:29.667Z,10.97
2019-02-28T07:28:01.581Z,10.60
2019-02-28T07:30:27.680Z,11.37
2019-02-28T07:32:56.033Z,11.87
2019-02-28T07:35:24.772Z,10.70
2019-02-28T07:37:54.361Z,11.47
2019-02-28T07:40:22.889Z,11.00
2019-02-28T07:42:51.030Z,10.67
2019-02-28T07:45:19.174Z,12.00
2019-02-28T07:47:51.667Z,11.40
2019-02-28T07:50:17.373Z,11.90
2019-02-28T07:52:45.540Z,11.63
2019-02-28T07:55:14.388Z,12.20
2019-02-28T07:57:42.541Z,11.07
2019-02-28T08:00:18.308Z,11.50
2019-02-28T08:02:45.121Z,11.23
2019-02-28T08:05:13.500Z,11.47
2019-02-28T08:07:41.705Z,11.43
2019-02-28T08:10:12.773Z,10.67
2019-02-28T08:12:41.491Z,10.93
2019-02-28T08:15:11.175Z,11.17
2019-02-28T08:17:40.640Z,11.00
2019-02-28T08:20:09.466Z,11.80
2019-02-28T08:22:37.608Z,11.77
2019-02-28T08:25:08.598Z,11.80
2019-02-28T08:27:36.962Z,11.23
2019-02-28T08:30:12.756Z,11.67
2019-02-28T08:32:43.920Z,12.27
2019-02-28T08:35:11.973Z,12.10
2019-02-28T08:37:40.122Z,11.67
2019-02-28T08:40:12.602Z,11.13
2019-02-28T08:42:39.837Z,10.43
2019-02-28T08:45:10.827Z,10.20
2019-02-28T08:47:39.082Z,10.67
2019-02-28T08:50:19.117Z,10.25
2019-02-28T08:52:44.342Z,10.55
2019-02-28T08:55:13.555Z,10.80
2019-02-28T08:57:41.704Z,10.15
2019-02-28T09:00:11.618Z,10.65
2019-02-28T09:02:39.766Z,10.25
2019-02-28T09:05:08.558Z,12.20
2019-02-28T09:07:37.218Z,10.93
2019-02-28T09:10:11.736Z,11.08
2019-02-28T09:12:37.097Z,10.60
2019-02-28T09:15:06.476Z,10.40
2019-02-28T09:17:34.607Z,10.98
2019-02-28T09:20:02.748Z,11.43
2019-02-28T09:22:30.949Z,11.48
2019-02-28T09:24:59.090Z,11.85
2019-02-28T09:27:27.242Z,10.88
2019-02-28T09:29:55.646Z,11.78
2019-02-28T09:32:23.917Z,11.03
2019-02-28T09:34:52.846Z,10.80
2019-02-28T09:37:21.026Z,11.50
2019-02-28T09:39:51.330Z,10.95
2019-02-28T09:42:19.398Z,12.00
2019-02-28T09:44:47.545Z,12.68
2019-02-28T09:47:15.750Z,11.28
2019-02-28T09:49:44.266Z,11.60
2019-02-28T09:52:13.842Z,11.10
2019-02-28T09:54:42.137Z,11.90
2019-02-28T09:57:10.505Z,11.50
2019-02-28T09:59:38.726Z,11.88
2019-02-28T10:02:08.429Z,11.10
2019-02-28T10:04:37.127Z,12.55
2019-02-28T10:07:05.261Z,12.25
2019-02-28T10:09:33.397Z,11.57
2019-02-28T10:12:04.591Z,11.93
2019-02-28T10:14:31.588Z,12.05
2019-02-28T10:16:59.781Z,11.63
2019-02-28T10:19:28.464Z,11.95
2019-02-28T10:21:56.621Z,13.62
2019-02-28T10:24:24.823Z,12.88
2019-02-28T10:26:53.223Z,13.62
2019-02-28T10:29:21.361Z,14.15
2019-02-28T10:31:49.516Z,13.50
2019-02-28T10:34:17.937Z,13.30
2019-02-28T10:36:47.975Z,13.45
2019-02-28T10:39:16.162Z,14.33
2019-02-28T10:41:44.802Z,13.65
2019-02-28T10:44:12.958Z,13.58
2019-02-28T10:46:41.137Z,14.18
2019-02-28T10:49:09.384Z,13.85
2019-02-28T10:51:37.518Z,13.58
2019-02-28T10:54:05.672Z,16.02
2019-02-28T10:56:34.133Z,13.80
2019-02-28T10:59:02.341Z,14.45
2019-02-28T11:01:30.506Z,14.05
2019-02-28T11:04:00.207Z,14.78
2019-02-28T11:06:28.911Z,14.45
2019-02-28T11:08:57.190Z,14.58
2019-02-28T11:11:25.593Z,15.15
2019-02-28T11:13:53.733Z,14.83
2019-02-28T11:16:23.640Z,14.55
2019-02-28T11:18:51.879Z,15.70
2019-02-28T11:21:20.090Z,14.98
2019-02-28T11:23:50.062Z,16.15
2019-02-28T11:26:18.456Z,15.38
2019-02-28T11:28:46.634Z,15.13
2019-02-28T11:31:16.379Z,14.87
2019-02-28T11:33:45.045Z,15.40
2019-02-28T11:36:13.338Z,15.98
2019-02-28T11:38:41.910Z,15.80
2019-02-28T11:41:10.286Z,16.57
2019-02-28T11:43:38.685Z,17.23
2019-02-28T11:46:07.145Z,16.20
2019-02-28T11:48:35.376Z,15.93
2019-02-28T11:51:03.703Z,16.40
2019-02-28T11:53:31.839Z,17.57
2019-02-28T11:56:00.118Z,17.32
2019-02-28T11:58:30.373Z,16.77
2019-02-28T12:00:58.216Z,16.82
2019-02-28T12:03:26.974Z,15.68
2019-02-28T12:05:55.130Z,16.50
2019-02-28T12:08:23.259Z,17.05
2019-02-28T12:10:51.806Z,16.05
2019-02-28T12:13:20.639Z,16.10
2019-02-28T12:15:48.904Z,16.57
2019-02-28T12:18:17.212Z,15.40
2019-02-28T12:20:45.360Z,15.85
2019-02-28T12:23:13.509Z,15.05
2019-02-28T12:25:42.921Z,15.53
2019-02-28T12:28:11.760Z,15.45
2019-02-28T12:30:40.332Z,16.00
2019-02-28T12:33:08.548Z,15.13
2019-02-28T12:35:40.380Z,15.68
2019-02-28T12:38:06.849Z,14.25
2019-02-28T12:40:38.753Z,14.53
2019-02-28T12:43:08.659Z,14.98
2019-02-28T12:45:38.371Z,13.62
2019-02-28T12:48:06.798Z,14.55
2019-02-28T12:50:35.040Z,13.72
2019-02-28T12:53:03.524Z,13.70
2019-02-28T12:55:31.729Z,14.20
2019-02-28T12:58:00.006Z,13.88
2019-02-28T13:00:29.691Z,13.72
2019-02-28T13:02:57.933Z,13.88
2019-02-28T13:05:26.213Z,14.75
2019-02-28T13:07:54.451Z,13.75
2019-02-28T13:10:26.806Z,13.83
2019-02-28T13:12:52.909Z,13.43
2019-02-28T13:15:21.318Z,14.05
2019-02-28T13:17:49.745Z,12.88
2019-02-28T13:20:19.433Z,14.15
2019-02-28T13:22:47.601Z,13.22
2019-02-28T13:25:15.938Z,12.90
2019-02-28T13:27:45.238Z,13.10
2019-02-28T13:30:20.924Z,13.20
2019-02-28T13:32:49.080Z,12.55
2019-02-28T13:35:25.307Z,11.95
2019-02-28T13:37:53.643Z,11.28
2019-02-28T13:40:22.294Z,11.60
2019-02-28T13:42:50.729Z,11.15
2019-02-28T13:45:23.041Z,11.53
2019-02-28T13:47:49.474Z,10.55
2019-02-28T13:50:22.089Z,9.65
2019-02-28T13:52:52.691Z,9.20
2019-02-28T13:55:21.433Z,8.65
2019-02-28T13:57:49.877Z,8.90
2019-02-28T14:00:20.326Z,9.78
2019-02-28T14:02:48.663Z,9.85
2019-02-28T14:05:17.156Z,8.43
2019-02-28T14:07:45.310Z,9.58
2019-02-28T14:10:14.442Z,7.80
2019-02-28T14:12:42.789Z,8.75
2019-02-28T14:15:16.827Z,8.43
2019-02-28T14:17:45.076Z,8.20
2019-02-28T14:20:13.495Z,9.03
2019-02-28T14:22:42.712Z,8.48
2019-02-28T14:25:11.912Z,9.10
2019-02-28T14:27:40.234Z,9.13
2019-02-28T14:30:12.691Z,8.88
2019-02-28T14:32:42.320Z,9.55
2019-02-28T14:35:11.557Z,9.18
2019-02-28T14:37:39.835Z,9.40
2019-02-28T14:40:09.737Z,9.30
2019-02-28T14:42:40.757Z,9.48
2019-02-28T14:45:14.272Z,9.08
2019-02-28T14:47:42.525Z,9.28
2019-02-28T14:50:11.764Z,10.20
2019-02-28T14:52:40.389Z,10.15
2019-02-28T14:55:13.237Z,10.23
2019-02-28T14:57:41.513Z,10.55
2019-02-28T15:00:23.420Z,9.48
2019-02-28T15:02:51.738Z,10.68
2019-02-28T15:05:20.478Z,10.90
2019-02-28T15:07:49.730Z,10.48
2019-02-28T15:10:22.439Z,10.23
2019-02-28T15:12:50.658Z,10.23
2019-02-28T15:15:21.865Z,10.40
2019-02-28T15:17:50.222Z,9.98
2019-02-28T15:20:18.442Z,10.50
2019-02-28T15:22:46.661Z,10.10
2019-02-28T15:25:18.677Z,9.93
2019-02-28T15:27:45.705Z,10.45
2019-02-28T15:30:17.933Z,10.58
2019-02-28T15:32:46.181Z,10.15
2019-02-28T15:35:15.977Z,10.40
2019-02-28T15:37:44.130Z,11.12
2019-02-28T15:40:32.440Z,10.78
2019-02-28T15:43:00.649Z,10.25
2019-02-28T15:45:28.846Z,9.83
2019-02-28T15:47:59.022Z,10.95
2019-02-28T15:50:27.307Z,11.10
2019-02-28T15:52:55.614Z,10.98
2019-02-28T15:55:24.206Z,9.90
2019-02-28T15:57:52.424Z,10.65
2019-02-28T16:00:24.838Z,11.65
2019-02-28T16:02:53.189Z,10.55
2019-02-28T16:05:21.426Z,10.95
2019-02-28T16:07:50.545Z,10.50
2019-02-28T16:10:23.330Z,10.65
2019-02-28T16:12:51.531Z,11.25
2019-02-28T16:15:19.671Z,10.32
2019-02-28T16:17:48.133Z,10.95
2019-02-28T16:20:16.971Z,11.78
2019-02-28T16:22:45.566Z,11.65
2019-02-28T16:25:15.748Z,11.10
2019-02-28T16:27:44.061Z,11.20
2019-02-28T16:30:13.502Z,11.22
2019-02-28T16:32:41.802Z,10.80
2019-02-28T16:35:10.086Z,12.07
2019-02-28T16:37:38.334Z,13.05
2019-02-28T16:40:08.606Z,13.15
2019-02-28T16:42:36.753Z,12.78
2019-02-28T16:45:06.836Z,12.13
2019-02-28T16:47:35.256Z,11.57
2019-02-28T16:50:03.996Z,11.68
2019-02-28T16:52:32.130Z,12.10
2019-02-28T16:55:00.476Z,11.28
2019-02-28T16:57:28.624Z,11.28
2019-02-28T16:59:56.784Z,11.63
2019-02-28T17:02:26.429Z,12.03
2019-02-28T17:04:54.681Z,11.57
2019-02-28T17:07:22.834Z,11.85
2019-02-28T17:09:51.162Z,11.80
2019-02-28T17:12:29.603Z,13.13
2019-02-28T17:14:57.810Z,12.95
2019-02-28T17:17:28.958Z,12.78
2019-02-28T17:19:57.210Z,12.13
2019-02-28T17:22:27.115Z,13.08
2019-02-28T17:24:55.435Z,12.15
2019-02-28T17:27:27.780Z,12.05
2019-02-28T17:30:00.755Z,12.00
2019-02-28T17:32:31.330Z,12.68
2019-02-28T17:34:59.693Z,13.03
2019-02-28T17:37:28.130Z,13.43
2019-02-28T17:39:56.433Z,12.53
2019-02-28T17:42:24.653Z,13.70
2019-02-28T17:44:57.433Z,14.28
2019-02-28T17:47:33.128Z,14.35
2019-02-28T17:50:17.999Z,14.30
2019-02-28T17:52:50.665Z,14.68
2019-02-28T17:55:38.733Z,14.23
2019-02-28T17:58:08.410Z,13.98
2019-02-28T18:00:48.159Z,12.98
2019-02-28T18:03:25.813Z,13.98
2019-02-28T18:05:58.824Z,13.32
2019-02-28T18:08:37.596Z,13.80
2019-02-28T18:11:22.533Z,14.23
2019-02-28T18:14:07.250Z,15.08
2019-02-28T18:16:42.882Z,14.60
2019-02-28T18:19:19.435Z,14.00
2019-02-28T18:22:06.610Z,13.70
2019-02-28T18:24:41.156Z,13.93
2019-02-28T18:27:13.465Z,14.85
2019-02-28T18:29:59.843Z,15.08
2019-02-28T18:32:29.837Z,14.15
2019-02-28T18:34:58.186Z,15.75
2019-02-28T18:37:26.442Z,15.15
2019-02-28T18:39:54.954Z,14.85
2019-02-28T18:42:23.122Z,15.28
2019-02-28T18:44:51.271Z,15.43
2019-02-28T18:47:19.578Z,15.93
2019-02-28T18:49:47.735Z,15.38
2019-02-28T18:52:15.959Z,14.68
2019-02-28T18:54:44.262Z,15.03
2019-02-28T18:57:12.414Z,15.10
2019-02-28T18:59:40.586Z,15.90
2019-02-28T19:02:08.861Z,15.25
2019-02-28T19:04:37.042Z,15.88
2019-02-28T19:07:05.302Z,14.83
2019-02-28T19:09:33.591Z,15.85
2019-02-28T19:12:01.799Z,15.50
2019-02-28T19:14:29.970Z,15.45
2019-02-28T19:16:58.121Z,16.27
2019-02-28T19:19:26.298Z,15.60
2019-02-28T19:21:54.450Z,16.65
2019-02-28T19:24:22.878Z,15.88
2019-02-28T19:26:51.038Z,16.45
2019-02-28T19:29:19.218Z,17.12
2019-02-28T19:31:47.612Z,16.62
2019-02-28T19:34:15.862Z,15.93
2019-02-28T19:36:44.024Z,16.40
2019-02-28T19:39:12.545Z,16.80
2019-02-28T19:41:41.050Z,16.20
2019-02-28T19:46:47.620Z,14.85
2019-02-28T19:49:15.766Z,16.67
2019-02-28T19:51:43.906Z,15.85
2019-02-28T19:54:12.169Z,15.65
2019-02-28T19:56:40.454Z,15.45
2019-02-28T19:59:27.990Z,15.50
2019-02-28T20:01:57.262Z,15.95
2019-02-28T20:04:44.925Z,15.65
2019-02-28T20:07:14.860Z,15.35
2019-02-28T20:09:43.103Z,15.85
2019-02-28T20:12:11.393Z,15.25
2019-02-28T20:14:39.526Z,15.75
2019-02-28T20:17:07.673Z,14.93
2019-02-28T20:19:35.987Z,15.83
2019-02-28T20:22:04.594Z,14.68
2019-02-28T20:24:32.761Z,14.60
2019-02-28T20:27:01.039Z,15.10
2019-02-28T20:29:29.182Z,15.08
2019-02-28T20:31:57.331Z,14.80
2019-02-28T20:34:25.562Z,13.88
2019-02-28T20:36:53.772Z,13.43
2019-02-28T20:39:21.918Z,13.32
2019-02-28T20:41:50.211Z,13.30
2019-02-28T20:44:18.349Z,13.98
2019-02-28T20:46:46.502Z,13.13
2019-02-28T20:49:14.678Z,12.78
2019-02-28T20:51:42.840Z,13.35
2019-02-28T20:54:10.995Z,12.88
2019-02-28T20:56:39.214Z,13.05
2019-02-28T20:59:07.364Z,12.45
2019-02-28T21:01:35.506Z,12.18
2019-02-28T21:04:03.961Z,13.05
2019-02-28T21:06:32.113Z,12.40
2019-02-28T21:09:00.247Z,12.55
2019-02-28T21:11:28.532Z,11.93
2019-02-28T21:13:56.685Z,12.40
2019-02-28T21:16:44.182Z,12.45
2019-02-28T21:19:12.320Z,11.90
2019-02-28T21:21:40.458Z,12.53
2019-02-28T21:24:08.821Z,12.00
2019-02-28T21:26:36.969Z,12.18
2019-02-28T21:29:05.124Z,12.33
2019-02-28T21:31:33.361Z,12.55
2019-02-28T21:34:01.504Z,13.33
2019-02-28T21:36:29.645Z,13.20
2019-02-28T21:38:57.853Z,14.63
2019-02-28T21:41:26.056Z,14.40
2019-02-28T21:43:54.210Z,14.33
2019-02-28T21:46:22.407Z,15.32
2019-02-28T21:48:50.530Z,16.87
2019-02-28T21:51:18.670Z,17.02
2019-02-28T21:53:46.985Z,17.35
2019-02-28T21:56:15.164Z,16.75
2019-02-28T21:58:43.330Z,16.62
2019-02-28T22:01:11.702Z,17.40
2019-02-28T22:03:39.855Z,16.65
2019-02-28T22:06:08.012Z,17.10
2019-02-28T22:08:36.240Z,16.75
2019-02-28T22:14:16.627Z,16.85
2019-02-28T22:16:44.786Z,16.87
2019-02-28T22:19:12.937Z,16.40
2019-02-28T22:21:41.327Z,16.57
2019-02-28T22:24:09.461Z,16.12
2019-02-28T22:26:37.610Z,16.52
2019-02-28T22:29:05.910Z,17.30
2019-02-28T22:34:12.368Z,15.78
2019-02-28T22:36:41.750Z,15.55
2019-02-28T22:39:10.221Z,14.05
2019-02-28T22:41:38.519Z,14.00
2019-02-28T22:44:06.672Z,14.13
2019-02-28T22:46:34.867Z,13.35
2019-02-28T22:49:03.323Z,13.18
2019-02-28T22:51:31.482Z,12.33
2019-02-28T22:53:59.680Z,12.47
2019-02-28T22:56:28.181Z,12.18
2019-02-28T22:58:56.336Z,12.07
2019-02-28T23:01:25.120Z,11.48
2019-02-28T23:03:53.474Z,11.48
2019-02-28T23:06:21.643Z,10.95
2019-02-28T23:08:49.867Z,11.15
2019-02-28T23:11:18.157Z,11.28
2019-02-28T23:13:46.309Z,11.30
2019-02-28T23:16:14.462Z,9.57
2019-02-28T23:18:42.752Z,10.32
2019-02-28T23:21:10.887Z,9.55
2019-02-28T23:23:39.026Z,9.70
2019-02-28T23:26:08.407Z,9.08
2019-02-28T23:28:38.070Z,9.78
2019-02-28T23:31:16.953Z,10.37
2019-02-28T23:33:45.968Z,9.47
2019-02-28T23:36:14.116Z,10.05
2019-02-28T23:38:42.265Z,10.55
2019-02-28T23:41:10.622Z,9.83
2019-02-28T23:43:38.834Z,10.67
2019-02-28T23:46:07.010Z,10.17
2019-02-28T23:48:35.243Z,10.40
2019-02-28T23:51:03.535Z,10.40
2019-02-28T23:53:31.702Z,10.88
2019-02-28T23:56:00.023Z,10.53
2019-02-28T23:58:28.183Z,10.55
